Terminal Aerodrome Forecast
Issued by NWS Kansas City/Pleasant Hill, MO

Home | Current Version | Previous Version | Text Only | Print | Product List | Glossary On
Versions: 1 2 3 4 5 6 7 8 9 10 11 12 13 14 15 16 17 18
000
FTUS43 KEAX 151100
TAFMCI
TAF
KMCI 151120Z 1512/1612 10010KT P6SM -SHRA OVC040
     FM151500 10012KT P6SM -SHRA SCT015 OVC025
     FM152000 11013KT P6SM SCT015 OVC025
     FM160800 14006KT 5SM BR OVC007=

USA.gov is the U.S. government's official web portal to all federal, state and local government web resources and services.